Terminal Aerodrome Forecast
Issued by NWS

Home | Current Version | Previous Version | Text Only | Print | Product List | Glossary On
Versions: 1 2 3 4 5 6 7 8 9 10 11 12 13 14 15 16 17 18 19
693
FTUS46 KMTR 240659 AAA
TAFSJC
TAF AMD
KSJC 240659Z 2407/2506 29005KT P6SM FEW011 BKN015
     FM241000 VRB03KT P6SM OVC010
     FM241700 VRB04KT P6SM SKC
     FM242200 28011KT P6SM SKC=

USA.gov is the U.S. government's official web portal to all federal, state and local government web resources and services.